Time;durP1;ratioP1;P1;durP2;ratioP2;P2;SDS_P1;SDS_P2;PMS_P1;PMS_P2;Temp;Humidity;BMP_temperature;BMP_pressure;BME280_temperature;BME280_humidity;BME280_pressure;Samples;Min_cycle;Max_cycle;Signal;HPM_P1;HPM_P2
2022/07/02 00:00:59;;;;;;;0.88;0.88;;;;;;;14.82;nan;96941.44;5004221;28;20217;-71
2022/07/02 00:03:32;;;;;;;1.15;0.90;;;;;;;14.60;nan;96938.94;5003892;28;20686;-71
2022/07/02 00:06:00;;;;;;;1.00;0.88;;;;;;;14.57;nan;96933.16;5001921;28;20214;-70
2022/07/02 00:08:28;;;;;;;1.08;0.95;;;;;;;14.60;nan;96940.75;5004801;28;20725;-70
2022/07/02 00:10:56;;;;;;;1.98;1.02;;;;;;;14.63;nan;96951.00;5004532;28;20230;-71
2022/07/02 00:13:24;;;;;;;1.85;0.98;;;;;;;14.52;nan;96944.31;5003828;28;20200;-70
2022/07/02 00:15:50;;;;;;;1.30;0.90;;;;;;;14.30;nan;96955.03;5001338;28;20206;-70
2022/07/02 00:18:19;;;;;;;1.40;1.20;;;;;;;14.32;nan;96948.53;5004895;28;20235;-70
2022/07/02 00:20:46;;;;;;;5.65;1.15;;;;;;;14.20;nan;96959.78;5004666;28;20526;-71
2022/07/02 00:23:13;;;;;;;1.13;0.60;;;;;;;14.11;nan;96956.38;5002480;28;20682;-70
2022/07/02 00:25:42;;;;;;;0.80;0.70;;;;;;;14.14;nan;96955.19;5002566;28;20221;-70
2022/07/02 00:28:11;;;;;;;3.10;1.38;;;;;;;14.07;nan;96959.53;5005198;28;20226;-70
2022/07/02 00:30:39;;;;;;;2.78;1.20;;;;;;;13.94;nan;96961.16;5005729;28;20203;-70
2022/07/02 00:33:07;;;;;;;2.35;1.52;;;;;;;14.07;nan;96951.59;5003017;28;20199;-70
2022/07/02 00:35:35;;;;;;;2.17;1.30;;;;;;;14.24;nan;96950.44;5004935;28;20234;-70
2022/07/02 00:38:02;;;;;;;3.35;1.20;;;;;;;14.17;nan;96954.84;5004858;28;20666;-70
2022/07/02 00:40:31;;;;;;;1.98;1.10;;;;;;;14.32;nan;96955.66;5005429;28;20579;-70
2022/07/02 00:42:58;;;;;;;3.08;1.10;;;;;;;14.27;nan;96958.06;5004430;28;20198;-70
2022/07/02 00:45:27;;;;;;;3.22;1.80;;;;;;;14.13;nan;96950.91;5004797;28;20203;-70
2022/07/02 00:47:54;;;;;;;3.92;1.90;;;;;;;13.96;nan;96957.31;5005748;28;20202;-71
2022/07/02 00:50:22;;;;;;;1.92;1.58;;;;;;;13.88;nan;96954.75;5004368;28;20226;-70
2022/07/02 00:52:50;;;;;;;4.13;1.70;;;;;;;14.15;nan;96949.72;5002844;28;20234;-70
2022/07/02 00:55:16;;;;;;;1.70;1.40;;;;;;;14.20;nan;96954.47;5002838;28;20203;-70
2022/07/02 00:57:46;;;;;;;6.40;1.58;;;;;;;14.06;nan;96955.25;5004541;28;20233;-70
2022/07/02 01:00:15;;;;;;;7.93;2.10;;;;;;;13.68;nan;96956.28;5003666;28;20230;-71
2022/07/02 01:02:43;;;;;;;3.88;2.03;;;;;;;13.72;nan;96948.78;5003729;28;20226;-70
2022/07/02 01:05:10;;;;;;;3.72;2.10;;;;;;;13.65;nan;96947.84;5003317;28;20667;-71
2022/07/02 01:07:37;;;;;;;16.15;1.77;;;;;;;13.63;nan;96945.38;5003050;28;20827;-70
2022/07/02 01:10:18;;;;;;;12.15;1.75;;;;;;;13.76;nan;96936.81;5003624;28;20702;-70
2022/07/02 01:12:46;;;;;;;12.80;1.90;;;;;;;13.69;nan;96939.34;5002453;28;20223;-71
2022/07/02 01:15:13;;;;;;;7.97;1.50;;;;;;;13.69;nan;96935.91;5001346;28;20214;-71
2022/07/02 01:17:40;;;;;;;10.95;1.77;;;;;;;13.73;nan;96929.25;5002826;28;20202;-70
2022/07/02 01:20:07;;;;;;;8.75;1.85;;;;;;;13.87;nan;96937.19;5003325;28;20222;-70
2022/07/02 01:22:36;;;;;;;2.53;1.38;;;;;;;14.11;nan;96934.34;5002395;28;20222;-70
2022/07/02 01:25:04;;;;;;;2.08;1.30;;;;;;;14.00;nan;96927.66;5002882;28;20280;-70
2022/07/02 01:27:31;;;;;;;2.28;1.50;;;;;;;13.95;nan;96928.34;5002504;28;20218;-70
2022/07/02 01:29:57;;;;;;;4.78;1.48;;;;;;;13.91;nan;96927.06;5002994;28;20249;-70
2022/07/02 01:32:24;;;;;;;3.05;1.50;;;;;;;13.84;nan;96926.16;5003351;28;20588;-71
2022/07/02 01:34:52;;;;;;;2.67;1.40;;;;;;;13.95;nan;96921.25;5002540;28;20206;-70
2022/07/02 01:37:21;;;;;;;2.20;1.58;;;;;;;14.04;nan;96917.50;5002544;28;20218;-70
2022/07/02 01:39:49;;;;;;;3.55;1.50;;;;;;;14.21;nan;96919.81;5002277;28;20741;-71
2022/07/02 01:42:16;;;;;;;2.00;1.40;;;;;;;14.02;nan;96922.16;5003945;28;20205;-70
2022/07/02 01:44:45;;;;;;;3.75;1.42;;;;;;;14.26;nan;96928.03;5001897;28;20261;-70
2022/07/02 01:47:13;;;;;;;1.33;1.23;;;;;;;14.00;nan;96927.66;5001996;28;20206;-70
2022/07/02 01:49:40;;;;;;;1.87;1.50;;;;;;;14.00;nan;96932.09;5003087;28;20399;-70
2022/07/02 01:52:07;;;;;;;4.13;1.40;;;;;;;14.06;nan;96931.38;5002502;28;20566;-70
2022/07/02 01:54:34;;;;;;;3.03;1.60;;;;;;;14.10;nan;96932.69;5003191;28;20282;-70
2022/07/02 01:57:03;;;;;;;1.73;1.42;;;;;;;14.16;nan;96931.97;5002698;28;20203;-70
2022/07/02 01:59:29;;;;;;;2.55;1.40;;;;;;;14.21;nan;96932.25;5001891;28;20497;-70
2022/07/02 02:01:56;;;;;;;10.60;1.60;;;;;;;14.15;nan;96930.31;5002702;28;20202;-71
2022/07/02 02:04:22;;;;;;;1.90;1.20;;;;;;;14.12;nan;96928.06;5002766;28;20225;-71
2022/07/02 02:06:49;;;;;;;6.10;1.70;;;;;;;14.13;nan;96933.16;5003532;28;20217;-70
2022/07/02 02:09:15;;;;;;;3.17;1.52;;;;;;;14.11;nan;96929.06;5002621;28;20226;-70
2022/07/02 02:11:43;;;;;;;2.10;1.25;;;;;;;14.23;nan;96938.19;5001235;28;20222;-70
2022/07/02 02:14:11;;;;;;;1.90;1.40;;;;;;;13.99;nan;96930.47;4999912;28;20289;-71
2022/07/02 02:16:38;;;;;;;2.65;1.63;;;;;;;13.36;nan;96952.22;5003272;28;20214;-70
2022/07/02 02:19:04;;;;;;;4.88;1.55;;;;;;;13.53;nan;96941.31;5002856;28;20229;-70
2022/07/02 02:21:31;;;;;;;2.28;1.40;;;;;;;13.89;nan;96929.91;5002607;28;20202;-70
2022/07/02 02:23:59;;;;;;;2.95;1.90;;;;;;;14.15;nan;96936.47;5001576;28;20210;-70
2022/07/02 02:26:26;;;;;;;5.90;1.85;;;;;;;13.98;nan;96939.44;5002640;28;20580;-70
2022/07/02 02:28:53;;;;;;;10.95;2.33;;;;;;;13.83;nan;96935.09;5002651;28;20237;-70
2022/07/02 02:31:21;;;;;;;14.02;1.63;;;;;;;13.91;nan;96938.47;5002113;28;20202;-71
2022/07/02 02:33:48;;;;;;;6.00;1.63;;;;;;;13.78;nan;96940.94;5001676;28;20202;-70
2022/07/02 02:36:14;;;;;;;7.80;1.60;;;;;;;13.75;nan;96936.00;5003278;28;20202;-70
2022/07/02 02:38:41;;;;;;;7.07;1.80;;;;;;;13.86;nan;96937.38;5003448;28;20700;-70
2022/07/02 02:41:09;;;;;;;2.15;1.70;;;;;;;14.18;nan;96938.75;5003830;28;20191;-70
2022/07/02 02:43:37;;;;;;;4.85;1.85;;;;;;;14.19;nan;96944.84;5002966;28;20198;-70
2022/07/02 02:46:05;;;;;;;2.42;1.48;;;;;;;14.26;nan;96943.97;5004378;28;20232;-70
2022/07/02 02:48:34;;;;;;;3.25;1.50;;;;;;;14.28;nan;96938.47;5003314;28;20281;-70
2022/07/02 02:51:01;;;;;;;13.45;1.77;;;;;;;14.03;nan;96942.34;5004285;28;20697;-71
2022/07/02 02:53:27;;;;;;;2.38;1.50;;;;;;;13.98;nan;96936.78;5004316;28;20229;-70
2022/07/02 02:55:54;;;;;;;4.55;1.77;;;;;;;13.78;nan;96942.78;5002557;28;20202;-71
2022/07/02 02:58:20;;;;;;;3.15;1.73;;;;;;;13.90;nan;96941.31;5001679;28;20238;-70
2022/07/02 03:00:47;;;;;;;3.45;1.73;;;;;;;14.20;nan;96935.91;5003761;28;20218;-70
2022/07/02 03:03:13;;;;;;;2.55;1.67;;;;;;;14.20;nan;96942.03;5002779;28;20663;-70
2022/07/02 03:05:41;;;;;;;3.85;1.27;;;;;;;13.97;nan;96940.44;5002183;28;20561;-70
2022/07/02 03:08:07;;;;;;;1.60;1.30;;;;;;;13.89;nan;96948.47;5004086;28;20269;-70
2022/07/02 03:10:34;;;;;;;6.78;1.60;;;;;;;13.90;nan;96951.91;5003566;28;20957;-70
2022/07/02 03:13:00;;;;;;;1.77;1.30;;;;;;;13.89;nan;96948.47;5002200;28;20222;-70
2022/07/02 03:15:27;;;;;;;4.07;1.42;;;;;;;13.93;nan;96954.22;5002970;28;20682;-70
2022/07/02 03:17:53;;;;;;;5.38;1.25;;;;;;;13.88;nan;96954.75;5003064;28;20619;-70
2022/07/02 03:20:20;;;;;;;1.63;1.25;;;;;;;14.09;nan;96950.44;5003373;28;20198;-70
2022/07/02 03:22:47;;;;;;;2.08;1.30;;;;;;;14.37;nan;96950.63;5000080;28;20210;-70
2022/07/02 03:25:14;;;;;;;2.63;1.40;;;;;;;14.32;nan;96960.94;5003977;28;20198;-70
2022/07/02 03:27:41;;;;;;;2.95;1.42;;;;;;;14.31;nan;96956.69;5003182;28;20210;-70
2022/07/02 03:30:09;;;;;;;2.90;1.98;;;;;;;14.45;nan;96953.22;5002685;28;20221;-70
2022/07/02 03:32:35;;;;;;;3.10;1.75;;;;;;;14.18;nan;96952.00;5002935;28;20238;-70
2022/07/02 03:35:02;;;;;;;2.65;1.90;;;;;;;14.08;nan;96955.94;5002769;28;20198;-70
2022/07/02 03:37:28;;;;;;;2.58;1.73;;;;;;;14.12;nan;96951.91;5003064;28;20210;-70
2022/07/02 03:39:57;;;;;;;9.93;1.83;;;;;;;13.87;nan;96960.25;5002717;28;20313;-71
2022/07/02 03:42:23;;;;;;;2.47;1.65;;;;;;;13.70;nan;96962.19;4999632;28;20201;-70
2022/07/02 03:44:50;;;;;;;3.22;1.80;;;;;;;13.67;nan;96957.28;5001281;28;20321;-71
2022/07/02 03:47:16;;;;;;;8.48;2.00;;;;;;;13.68;nan;96961.56;5002424;28;20206;-70
2022/07/02 03:49:43;;;;;;;3.47;1.60;;;;;;;13.60;nan;96963.44;5002036;28;20226;-70
2022/07/02 03:52:09;;;;;;;2.97;1.48;;;;;;;13.80;nan;96954.84;5001338;28;20234;-71
2022/07/02 03:54:36;;;;;;;4.28;1.50;;;;;;;13.59;nan;96953.84;5000848;28;20210;-70
2022/07/02 03:57:04;;;;;;;3.15;1.60;;;;;;;13.79;nan;96960.31;5002036;28;20693;-70
2022/07/02 03:59:31;;;;;;;5.05;1.60;;;;;;;13.50;nan;96958.41;5000802;28;20665;-71
2022/07/02 04:01:58;;;;;;;2.65;1.42;;;;;;;13.45;nan;96963.41;5000443;28;20210;-70
2022/07/02 04:04:24;;;;;;;1.55;1.42;;;;;;;13.49;nan;96961.22;5001200;28;20210;-70
2022/07/02 04:06:50;;;;;;;3.65;1.70;;;;;;;13.39;nan;96972.06;5000998;28;20738;-70
2022/07/02 04:09:17;;;;;;;5.13;1.60;;;;;;;13.29;nan;96973.28;5001675;28;20717;-70
2022/07/02 04:11:44;;;;;;;2.33;1.65;;;;;;;13.50;nan;96961.06;5004322;28;20209;-70
2022/07/02 04:14:12;;;;;;;2.15;1.52;;;;;;;13.86;nan;96966.53;5003492;28;20292;-70
2022/07/02 04:16:38;;;;;;;2.65;1.42;;;;;;;13.80;nan;96965.44;5004263;28;20210;-70
2022/07/02 04:19:04;;;;;;;3.08;1.45;;;;;;;13.99;nan;96965.75;5004187;28;20229;-70
2022/07/02 04:21:31;;;;;;;1.92;1.55;;;;;;;14.02;nan;96961.91;5003556;28;20210;-71
2022/07/02 04:23:57;;;;;;;3.90;1.60;;;;;;;13.92;nan;96968.47;5003825;28;20207;-70
2022/07/02 04:26:24;;;;;;;2.45;1.60;;;;;;;13.90;nan;96971.31;5004268;28;20202;-70
2022/07/02 04:28:50;;;;;;;2.20;1.70;;;;;;;13.98;nan;96968.56;5003479;28;20223;-70
2022/07/02 04:31:18;;;;;;;8.88;1.90;;;;;;;14.07;nan;96970.97;5004366;28;20218;-70
2022/07/02 04:33:45;;;;;;;3.53;1.85;;;;;;;13.92;nan;96968.47;5003559;28;20226;-70
2022/07/02 04:36:12;;;;;;;8.32;2.15;;;;;;;13.73;nan;96972.44;5004502;28;20305;-70
2022/07/02 04:38:38;;;;;;;3.25;2.25;;;;;;;13.80;nan;96975.22;5003905;28;20300;-70
2022/07/02 04:41:05;;;;;;;7.65;2.30;;;;;;;13.55;nan;96968.47;5004121;28;20289;-71
2022/07/02 04:43:31;;;;;;;6.97;2.10;;;;;;;13.41;nan;96979.81;5004338;28;20206;-70
2022/07/02 04:45:58;;;;;;;6.03;2.53;;;;;;;13.60;nan;96971.41;5002759;28;20464;-70
2022/07/02 04:48:25;;;;;;;16.02;2.80;;;;;;;13.77;nan;96981.69;5003934;28;20229;-70
2022/07/02 04:50:52;;;;;;;6.63;2.72;;;;;;;13.84;nan;96979.97;5004274;28;20206;-70
2022/07/02 04:53:18;;;;;;;6.53;3.15;;;;;;;13.86;nan;96983.28;5004515;28;20245;-70
2022/07/02 04:55:45;;;;;;;4.03;2.45;;;;;;;14.04;nan;96981.13;5003835;28;20210;-70
2022/07/02 04:58:11;;;;;;;13.27;3.20;;;;;;;14.27;nan;96976.63;5003960;28;20222;-71
2022/07/02 05:00:38;;;;;;;8.75;2.65;;;;;;;14.43;nan;96973.78;5004850;28;20575;-71
2022/07/02 05:03:04;;;;;;;8.00;2.75;;;;;;;14.34;nan;96972.22;5004299;28;20195;-71
2022/07/02 05:05:32;;;;;;;8.05;3.25;;;;;;;14.48;nan;96968.75;5003098;28;20206;-70
2022/07/02 05:07:59;;;;;;;4.55;2.72;;;;;;;14.39;nan;96973.31;5004940;28;20586;-70
2022/07/02 05:10:25;;;;;;;4.40;2.60;;;;;;;14.69;nan;96970.47;5004986;28;20578;-71
2022/07/02 05:12:52;;;;;;;4.03;2.72;;;;;;;14.75;nan;96969.75;5003874;28;20226;-71
2022/07/02 05:15:18;;;;;;;8.77;2.92;;;;;;;14.53;nan;96976.97;5005031;28;20226;-71
2022/07/02 05:17:45;;;;;;;4.30;2.85;;;;;;;14.42;nan;96980.06;5005766;28;20210;-71
2022/07/02 05:20:12;;;;;;;5.50;3.22;;;;;;;14.74;nan;96976.03;5004132;28;21080;-71
2022/07/02 05:22:39;;;;;;;7.43;3.00;;;;;;;14.97;nan;96984.72;5000476;28;20210;-71
2022/07/02 05:25:06;;;;;;;6.35;2.85;;;;;;;15.01;nan;96978.00;5002887;28;20247;-71
2022/07/02 05:27:33;;;;;;;4.90;3.05;;;;;;;14.83;nan;96982.09;5001890;28;20206;-70
2022/07/02 05:30:00;;;;;;;5.93;2.78;;;;;;;15.04;nan;96982.13;5000479;28;20337;-71
2022/07/02 05:32:26;;;;;;;20.95;3.78;;;;;;;14.92;nan;96980.97;4999731;28;20206;-70
2022/07/02 05:34:53;;;;;;;6.10;3.13;;;;;;;15.13;nan;96988.97;5000621;28;20561;-71
2022/07/02 05:37:19;;;;;;;6.10;3.63;;;;;;;15.31;nan;96991.06;4999582;28;20229;-70
2022/07/02 05:39:47;;;;;;;7.90;3.90;;;;;;;15.65;nan;96993.06;5000236;28;20237;-70
2022/07/02 05:42:13;;;;;;;4.53;2.28;;;;;;;15.76;nan;96987.22;5000347;28;20210;-70
2022/07/02 05:44:40;;;;;;;6.93;3.75;;;;;;;15.76;nan;96984.56;5000595;28;20206;-71
2022/07/02 05:47:06;;;;;;;5.03;2.90;;;;;;;15.62;nan;96988.13;5000338;28;20203;-70
2022/07/02 05:49:33;;;;;;;5.53;3.42;;;;;;;15.58;nan;96984.19;4999380;28;20249;-70
2022/07/02 05:51:59;;;;;;;6.35;3.58;;;;;;;15.46;nan;96983.84;4999178;28;20229;-70
2022/07/02 05:54:26;;;;;;;6.00;3.58;;;;;;;15.43;nan;96988.75;4998834;28;20233;-70
2022/07/02 05:56:54;;;;;;;7.43;3.42;;;;;;;15.56;nan;96984.38;4999234;28;20203;-70
2022/07/02 05:59:21;;;;;;;6.18;4.18;;;;;;;15.35;nan;96986.19;4999786;28;20223;-70
2022/07/02 06:01:48;;;;;;;9.15;2.92;;;;;;;15.87;nan;96977.72;4999331;28;20214;-71
2022/07/02 06:04:14;;;;;;;4.43;2.70;;;;;;;15.96;nan;96976.56;4998267;28;20199;-70
2022/07/02 06:09:25;;;;;;;7.55;2.97;;;;;;;15.98;nan;96985.16;4999102;28;20705;-71
2022/07/02 06:11:51;;;;;;;6.38;3.72;;;;;;;15.81;nan;96982.16;4999235;28;20202;-70
2022/07/02 06:14:19;;;;;;;5.75;3.45;;;;;;;16.09;nan;96979.34;4998633;28;20226;-70
2022/07/02 06:16:46;;;;;;;4.40;3.22;;;;;;;16.32;nan;96985.28;4998437;28;20214;-71
2022/07/02 06:19:12;;;;;;;5.57;3.28;;;;;;;16.64;nan;96987.31;4999518;28;20225;-72
2022/07/02 06:21:39;;;;;;;3.67;2.40;;;;;;;17.04;nan;96984.63;4995243;28;20202;-73
2022/07/02 06:24:06;;;;;;;5.63;3.30;;;;;;;17.18;nan;96978.34;4996900;28;20764;-72
2022/07/02 06:26:32;;;;;;;5.00;3.00;;;;;;;17.15;nan;96979.56;4997645;28;20203;-73
2022/07/02 06:28:59;;;;;;;4.80;3.20;;;;;;;17.04;nan;96986.50;4998174;28;20226;-73
2022/07/02 06:31:27;;;;;;;6.07;2.85;;;;;;;16.88;nan;96986.81;4996749;28;20225;-73
2022/07/02 06:33:53;;;;;;;4.70;3.03;;;;;;;16.46;nan;96981.69;4996258;28;20222;-72
2022/07/02 06:36:22;;;;;;;4.22;3.17;;;;;;;16.55;nan;96981.31;4997529;28;20202;-73
2022/07/02 06:38:49;;;;;;;4.13;3.10;;;;;;;16.85;nan;96979.22;4997590;28;20236;-72
2022/07/02 06:42:18;;;;;;;3.38;2.50;;;;;;;17.39;nan;96979.06;4997076;28;20210;-72
2022/07/02 06:44:03;;;;;;;3.67;2.50;;;;;;;17.64;nan;96982.00;4995744;28;20201;-73
2022/07/02 06:46:31;;;;;;;5.10;3.50;;;;;;;17.42;nan;96981.31;4996437;28;20199;-72
2022/07/02 06:48:57;;;;;;;4.38;3.17;;;;;;;17.52;nan;96984.44;4997451;28;20235;-69
2022/07/02 06:51:24;;;;;;;4.70;3.20;;;;;;;17.53;nan;96980.75;4997102;28;20563;-69
2022/07/02 06:53:50;;;;;;;4.45;3.20;;;;;;;17.46;nan;96974.56;4994818;28;21007;-69
2022/07/02 06:56:17;;;;;;;14.85;3.25;;;;;;;17.14;nan;96979.78;4996656;28;20215;-68
2022/07/02 06:58:43;;;;;;;4.00;2.85;;;;;;;17.51;nan;96980.13;4996466;28;20233;-68
2022/07/02 07:01:10;;;;;;;4.30;2.78;;;;;;;17.69;nan;96972.34;4997481;28;20218;-69
2022/07/02 07:03:38;;;;;;;5.43;2.83;;;;;;;18.40;nan;96962.53;4995200;28;20694;-69
2022/07/02 07:06:04;;;;;;;4.55;2.45;;;;;;;18.75;nan;96961.25;4997072;28;20203;-69
2022/07/02 07:08:31;;;;;;;4.78;3.15;;;;;;;18.50;nan;96964.81;4996477;28;20222;-69
2022/07/02 07:10:57;;;;;;;3.92;3.03;;;;;;;18.09;nan;96980.19;4996664;28;20206;-69
2022/07/02 07:13:24;;;;;;;5.80;3.42;;;;;;;17.67;nan;96974.41;4995566;28;20229;-69
2022/07/02 07:15:50;;;;;;;5.47;3.13;;;;;;;17.73;nan;96971.75;4996116;28;20697;-69
2022/07/02 07:18:17;;;;;;;5.25;3.30;;;;;;;17.63;nan;96970.53;4995347;28;20721;-73
2022/07/02 07:20:47;;;;;;;4.18;3.22;;;;;;;18.05;nan;96970.13;4993401;28;20220;-73
2022/07/02 07:23:13;;;;;;;3.88;3.05;;;;;;;18.01;nan;96974.22;4996793;28;20203;-73
2022/07/02 07:25:40;;;;;;;4.85;3.30;;;;;;;18.11;nan;96963.97;4996556;28;21009;-73
2022/07/02 07:28:06;;;;;;;4.03;2.90;;;;;;;18.07;nan;96970.75;4995893;28;20502;-74
2022/07/02 07:30:33;;;;;;;4.75;2.75;;;;;;;18.32;nan;96963.78;4996566;28;20229;-73
2022/07/02 07:32:59;;;;;;;4.28;2.60;;;;;;;18.54;nan;96969.50;4996540;28;20879;-73
2022/07/02 07:35:26;;;;;;;6.20;2.53;;;;;;;18.66;nan;96965.19;4996074;28;20907;-73
2022/07/02 07:37:59;;;;;;;3.75;2.53;;;;;;;18.88;nan;96963.88;4996274;28;20202;-73
2022/07/02 07:40:26;;;;;;;3.80;2.47;;;;;;;18.91;nan;96963.44;4996844;28;20203;-73
2022/07/02 07:42:52;;;;;;;4.35;2.50;;;;;;;18.89;nan;96964.69;4995992;28;20206;-73
2022/07/02 07:45:19;;;;;;;3.95;2.63;;;;;;;19.06;nan;96972.88;4999446;28;20290;-74
2022/07/02 07:47:45;;;;;;;5.70;3.30;;;;;;;18.96;nan;96963.63;5000171;28;20206;-73
2022/07/02 07:50:12;;;;;;;4.85;2.97;;;;;;;18.98;nan;96965.06;5000896;28;20897;-74
2022/07/02 07:52:38;;;;;;;5.70;2.95;;;;;;;19.19;nan;96964.00;4999201;28;20213;-74
2022/07/02 07:55:07;;;;;;;7.28;3.05;;;;;;;18.78;nan;96974.16;4999925;28;20222;-74
2022/07/02 07:57:33;;;;;;;4.40;3.00;;;;;;;18.72;nan;96969.66;5000298;28;20571;-73
2022/07/02 08:00:00;;;;;;;5.47;3.10;;;;;;;18.71;nan;96957.38;4999544;28;20234;-73
2022/07/02 08:02:26;;;;;;;4.03;2.85;;;;;;;19.36;nan;96957.13;4999991;28;20210;-74
2022/07/02 08:04:53;;;;;;;3.65;2.50;;;;;;;19.44;nan;96948.88;4999304;28;20225;-73
2022/07/02 08:07:19;;;;;;;5.25;2.28;;;;;;;19.74;nan;96943.53;5000034;28;20598;-73
2022/07/02 08:09:52;;;;;;;3.50;2.50;;;;;;;19.51;nan;96949.63;4999706;28;20231;-73
2022/07/02 08:12:20;;;;;;;3.42;2.28;;;;;;;20.13;nan;96940.56;4999930;28;20199;-73
2022/07/02 08:14:47;;;;;;;4.05;1.38;;;;;;;20.11;nan;96945.31;4999417;28;20277;-73
2022/07/02 08:17:14;;;;;;;1.13;0.98;;;;;;;19.98;nan;96941.94;5000365;28;20202;-73
2022/07/02 08:19:40;;;;;;;1.70;0.95;;;;;;;20.13;nan;96948.59;4999559;28;20233;-73
2022/07/02 08:22:07;;;;;;;1.02;0.75;;;;;;;20.26;nan;96937.75;4996876;28;20207;-74
2022/07/02 08:24:33;;;;;;;1.30;0.82;;;;;;;20.44;nan;96937.78;4999456;28;20202;-73
2022/07/02 08:27:00;;;;;;;1.45;1.17;;;;;;;20.64;nan;96938.44;4999610;28;20290;-73
2022/07/02 08:29:27;;;;;;;2.20;1.65;;;;;;;20.44;nan;96940.47;4999962;28;20218;-73
2022/07/02 08:31:54;;;;;;;4.03;1.65;;;;;;;20.75;nan;96937.69;4999087;28;20203;-73
2022/07/02 08:34:20;;;;;;;2.22;1.60;;;;;;;20.97;nan;96937.03;4998972;28;20222;-73
2022/07/02 08:36:47;;;;;;;2.55;1.67;;;;;;;21.01;nan;96941.72;4998972;28;20225;-74
2022/07/02 08:39:13;;;;;;;2.92;2.00;;;;;;;20.94;nan;96935.63;4999262;28;20238;-74
2022/07/02 08:41:42;;;;;;;2.78;1.42;;;;;;;21.21;nan;96936.94;4999215;28;20206;-74
2022/07/02 08:44:09;;;;;;;1.60;0.98;;;;;;;21.34;nan;96939.44;4998528;28;20206;-74
2022/07/02 08:46:39;;;;;;;1.90;1.10;;;;;;;21.28;nan;96934.97;4998210;28;20205;-74
2022/07/02 08:49:07;;;;;;;2.60;1.30;;;;;;;21.69;nan;96929.69;4998653;28;20229;-73
2022/07/02 08:51:34;;;;;;;1.63;1.30;;;;;;;21.32;nan;96936.19;4998929;28;20199;-74
2022/07/02 08:54:01;;;;;;;2.42;1.13;;;;;;;21.12;nan;96927.56;4997832;28;20227;-73
2022/07/02 08:56:31;;;;;;;1.17;1.08;;;;;;;21.15;nan;96916.38;4997613;28;20575;-73
2022/07/02 08:58:59;;;;;;;1.50;0.90;;;;;;;21.48;nan;96919.44;4997501;28;20637;-74
2022/07/02 09:01:26;;;;;;;1.90;0.80;;;;;;;21.61;nan;96906.72;4998771;28;20650;-73
2022/07/02 09:03:55;;;;;;;1.50;0.93;;;;;;;21.72;nan;96918.53;4998301;28;20281;-73
2022/07/02 09:06:28;;;;;;;1.30;0.75;;;;;;;21.91;nan;96909.34;4998950;28;20198;-73
2022/07/02 09:08:54;;;;;;;3.85;0.70;;;;;;;21.75;nan;96897.38;4998624;28;20222;-73
2022/07/02 09:11:22;;;;;;;1.20;0.80;;;;;;;21.75;nan;96896.59;4998566;28;20210;-74
2022/07/02 09:13:49;;;;;;;0.75;0.60;;;;;;;21.82;nan;96887.38;4994421;28;20226;-73
2022/07/02 09:16:16;;;;;;;1.15;0.68;;;;;;;21.81;nan;96890.31;4997604;28;20204;-73
2022/07/02 09:18:42;;;;;;;0.90;0.60;;;;;;;21.57;nan;96899.34;4997232;28;20258;-73
2022/07/02 09:21:10;;;;;;;0.70;0.63;;;;;;;21.80;nan;96894.03;4995032;28;20206;-74
2022/07/02 09:23:46;;;;;;;0.73;0.60;;;;;;;22.01;nan;96885.41;4997093;28;20202;-74
2022/07/02 09:26:17;;;;;;;0.80;0.70;;;;;;;22.21;nan;96895.59;4997524;28;20211;-73
2022/07/02 09:28:53;;;;;;;0.65;0.50;;;;;;;22.08;nan;96886.94;4996489;28;20357;-73
2022/07/02 09:31:19;;;;;;;2.00;0.57;;;;;;;21.97;nan;96890.44;4997317;28;20206;-74
2022/07/02 09:33:46;;;;;;;0.70;0.60;;;;;;;22.26;nan;96884.19;4995305;28;20199;-73
2022/07/02 09:36:14;;;;;;;0.75;0.57;;;;;;;22.15;nan;96887.66;4996886;28;20402;-73
2022/07/02 09:38:42;;;;;;;0.68;0.52;;;;;;;22.32;nan;96878.69;4996428;28;20588;-74
2022/07/02 09:41:12;;;;;;;1.95;0.70;;;;;;;22.38;nan;96888.50;4997543;28;20218;-74
2022/07/02 09:43:38;;;;;;;0.50;0.50;;;;;;;22.55;nan;96892.09;4996574;28;20202;-74
2022/07/02 09:46:15;;;;;;;5.20;0.60;;;;;;;22.36;nan;96885.22;4997905;28;20199;-73
2022/07/02 09:48:42;;;;;;;1.83;0.55;;;;;;;22.29;nan;96894.47;4996619;28;20312;-73
2022/07/02 09:51:08;;;;;;;1.52;0.60;;;;;;;22.32;nan;96885.94;4997198;28;20202;-74
2022/07/02 09:53:47;;;;;;;0.52;0.50;;;;;;;22.88;nan;96885.03;4997031;28;20203;-74
2022/07/02 09:56:14;;;;;;;0.55;0.55;;;;;;;22.79;nan;96882.97;4997234;28;20272;-73
2022/07/02 09:58:41;;;;;;;0.55;0.55;;;;;;;22.87;nan;96882.59;4996063;28;20233;-74
2022/07/02 10:01:07;;;;;;;1.70;0.60;;;;;;;22.99;nan;96878.84;4997572;28;20217;-73
2022/07/02 10:03:46;;;;;;;1.67;0.70;;;;;;;23.46;nan;96883.81;4996241;28;20678;-74
2022/07/02 10:06:14;;;;;;;2.97;0.80;;;;;;;23.46;nan;96883.81;4995372;28;20253;-73
2022/07/02 10:08:43;;;;;;;0.80;0.55;;;;;;;23.29;nan;96875.94;4995800;28;20223;-74
2022/07/02 10:11:10;;;;;;;0.60;0.60;;;;;;;23.10;nan;96879.88;4996649;28;20364;-74
2022/07/02 10:13:37;;;;;;;0.70;0.65;;;;;;;23.10;nan;96877.97;4996366;28;20227;-73
2022/07/02 10:16:05;;;;;;;0.68;0.57;;;;;;;23.17;nan;96880.56;4996701;28;20230;-73
2022/07/02 10:18:32;;;;;;;2.83;0.70;;;;;;;22.98;nan;96879.88;4997544;28;20218;-73
2022/07/02 10:21:00;;;;;;;1.52;0.73;;;;;;;23.05;nan;96874.38;4997455;28;20697;-73
2022/07/02 10:23:27;;;;;;;1.55;0.80;;;;;;;23.12;nan;96875.09;4996812;28;20252;-73
2022/07/02 10:25:56;;;;;;;1.20;0.60;;;;;;;23.18;nan;96868.72;4997398;28;20195;-74
2022/07/02 10:28:24;;;;;;;5.45;0.80;;;;;;;23.29;nan;96855.22;4996295;28;20273;-74
2022/07/02 10:30:52;;;;;;;2.20;0.52;;;;;;;23.47;nan;96852.34;4994173;28;20277;-73
2022/07/02 10:33:27;;;;;;;1.67;0.75;;;;;;;23.44;nan;96848.25;4996801;28;20202;-74
2022/07/02 10:35:54;;;;;;;1.08;0.60;;;;;;;23.83;nan;96843.84;4997616;28;20225;-74
2022/07/02 10:38:29;;;;;;;1.38;0.70;;;;;;;24.14;nan;96841.38;4997315;28;20570;-74
2022/07/02 10:40:57;;;;;;;4.15;0.55;;;;;;;24.08;nan;96836.97;4997538;28;20229;-74
2022/07/02 10:43:26;;;;;;;0.50;0.50;;;;;;;24.29;nan;96841.63;4996923;28;20294;-74
2022/07/02 10:46:01;;;;;;;0.85;0.70;;;;;;;24.55;nan;96843.63;4995843;28;20198;-74
2022/07/02 10:48:28;;;;;;;0.82;0.50;;;;;;;24.25;nan;96840.47;4997168;28;20229;-74
2022/07/02 10:50:57;;;;;;;0.95;0.52;;;;;;;24.42;nan;96839.41;4997162;28;20610;-74
2022/07/02 10:53:24;;;;;;;0.73;0.60;;;;;;;24.06;nan;96831.84;4996160;28;20658;-74
2022/07/02 10:55:59;;;;;;;1.77;0.80;;;;;;;24.45;nan;96825.44;4996256;28;20222;-74
2022/07/02 10:58:27;;;;;;;1.48;0.80;;;;;;;24.43;nan;96822.19;4997467;28;20227;-74
2022/07/02 11:00:54;;;;;;;0.93;0.70;;;;;;;24.15;nan;96824.97;4994559;28;20203;-73
2022/07/02 11:03:24;;;;;;;1.50;0.93;;;;;;;24.66;nan;96828.16;4994042;28;20206;-73
2022/07/02 11:05:56;;;;;;;0.75;0.70;;;;;;;24.76;nan;96822.09;4996691;28;20285;-74
2022/07/02 11:08:46;;;;;;;1.08;0.60;;;;;;;24.92;nan;96808.50;4996218;28;20729;-73
2022/07/02 11:11:17;;;;;;;1.40;0.60;;;;;;;24.60;nan;96817.56;4996565;28;20242;-74
2022/07/02 11:13:47;;;;;;;0.95;0.60;;;;;;;24.54;nan;96817.75;4995878;28;20216;-73
2022/07/02 11:16:23;;;;;;;2.40;0.70;;;;;;;24.67;nan;96808.22;4995183;28;20254;-74
2022/07/02 11:18:51;;;;;;;1.50;0.60;;;;;;;24.91;nan;96798.81;4995124;28;20218;-73
2022/07/02 11:21:18;;;;;;;1.15;0.60;;;;;;;24.77;nan;96811.06;4995572;28;20209;-73
2022/07/02 11:23:45;;;;;;;1.35;0.50;;;;;;;24.87;nan;96813.88;4994016;28;20218;-74
2022/07/02 11:26:17;;;;;;;2.10;0.68;;;;;;;24.95;nan;96804.50;4995335;28;20637;-74
2022/07/02 11:28:44;;;;;;;0.60;0.60;;;;;;;25.13;nan;96812.28;4993310;28;20229;-73
2022/07/02 11:31:11;;;;;;;2.13;0.60;;;;;;;25.01;nan;96801.59;4994627;28;20209;-74
2022/07/02 11:33:43;;;;;;;2.13;0.60;;;;;;;24.94;nan;96792.09;4994031;28;20214;-73
2022/07/02 11:36:09;;;;;;;2.60;0.65;;;;;;;25.02;nan;96794.34;4995451;28;20672;-74
2022/07/02 11:38:37;;;;;;;5.18;1.05;;;;;;;24.99;nan;96787.56;4995934;28;20641;-73
2022/07/02 11:41:03;;;;;;;0.75;0.60;;;;;;;24.89;nan;96787.47;4995962;28;20330;-71
2022/07/02 11:43:31;;;;;;;1.02;0.60;;;;;;;24.96;nan;96784.56;4994672;28;20205;-71
2022/07/02 11:45:58;;;;;;;4.15;0.80;;;;;;;24.94;nan;96782.13;4996181;28;20191;-72
2022/07/02 11:48:26;;;;;;;4.47;0.90;;;;;;;25.07;nan;96789.84;4996131;28;20230;-71
2022/07/02 11:50:56;;;;;;;0.57;0.57;;;;;;;25.59;nan;96777.41;4994366;28;20202;-72
2022/07/02 11:53:24;;;;;;;2.45;0.60;;;;;;;25.23;nan;96786.25;4995810;28;20752;-71